sensor_id;sensor_type;location;lat;lon;timestamp;P1;durP1;ratioP1;P2;durP2;ratioP2
10902;SDS011;5504;47.312;11.060;2023-09-12T00:02:05;13.13;;;11.80;;
10902;SDS011;5504;47.312;11.060;2023-09-12T00:04:30;12.50;;;11.30;;
10902;SDS011;5504;47.312;11.060;2023-09-12T00:06:59;13.07;;;11.77;;
10902;SDS011;5504;47.312;11.060;2023-09-12T00:09:25;12.30;;;11.10;;
10902;SDS011;5504;47.312;11.060;2023-09-12T00:11:50;12.77;;;11.63;;
10902;SDS011;5504;47.312;11.060;2023-09-12T00:14:16;12.75;;;11.55;;
10902;SDS011;5504;47.312;11.060;2023-09-12T00:16:43;13.00;;;11.70;;
10902;SDS011;5504;47.312;11.060;2023-09-12T00:19:08;12.15;;;10.98;;
10902;SDS011;5504;47.312;11.060;2023-09-12T00:21:35;12.40;;;11.20;;
10902;SDS011;5504;47.312;11.060;2023-09-12T00:24:00;13.32;;;12.02;;
10902;SDS011;5504;47.312;11.060;2023-09-12T00:26:26;12.60;;;11.45;;
10902;SDS011;5504;47.312;11.060;2023-09-12T00:28:52;13.48;;;12.20;;
10902;SDS011;5504;47.312;11.060;2023-09-12T00:31:18;13.10;;;11.80;;
10902;SDS011;5504;47.312;11.060;2023-09-12T00:33:43;13.13;;;11.90;;
10902;SDS011;5504;47.312;11.060;2023-09-12T00:36:09;13.90;;;12.70;;
10902;SDS011;5504;47.312;11.060;2023-09-12T00:38:35;13.90;;;12.48;;
10902;SDS011;5504;47.312;11.060;2023-09-12T00:41:00;13.48;;;12.27;;
10902;SDS011;5504;47.312;11.060;2023-09-12T00:43:26;13.77;;;12.20;;
10902;SDS011;5504;47.312;11.060;2023-09-12T00:45:52;12.98;;;11.65;;
10902;SDS011;5504;47.312;11.060;2023-09-12T00:48:18;12.90;;;11.70;;
10902;SDS011;5504;47.312;11.060;2023-09-12T00:50:46;12.65;;;11.45;;
10902;SDS011;5504;47.312;11.060;2023-09-12T00:53:14;12.70;;;11.50;;
10902;SDS011;5504;47.312;11.060;2023-09-12T00:55:42;13.27;;;11.98;;
10902;SDS011;5504;47.312;11.060;2023-09-12T00:58:11;12.95;;;11.75;;
10902;SDS011;5504;47.312;11.060;2023-09-12T01:00:40;13.48;;;12.07;;
10902;SDS011;5504;47.312;11.060;2023-09-12T01:03:06;12.70;;;11.50;;
10902;SDS011;5504;47.312;11.060;2023-09-12T01:05:32;12.98;;;11.77;;
10902;SDS011;5504;47.312;11.060;2023-09-12T01:07:59;13.10;;;11.85;;
10902;SDS011;5504;47.312;11.060;2023-09-12T01:10:25;12.90;;;11.70;;
10902;SDS011;5504;47.312;11.060;2023-09-12T01:12:52;13.10;;;11.75;;
10902;SDS011;5504;47.312;11.060;2023-09-12T01:15:18;13.57;;;12.27;;
10902;SDS011;5504;47.312;11.060;2023-09-12T01:17:44;12.43;;;11.10;;
10902;SDS011;5504;47.312;11.060;2023-09-12T01:20:15;13.20;;;12.00;;
10902;SDS011;5504;47.312;11.060;2023-09-12T01:28:20;14.13;;;12.73;;
10902;SDS011;5504;47.312;11.060;2023-09-12T01:30:52;13.32;;;12.13;;
10902;SDS011;5504;47.312;11.060;2023-09-12T01:33:19;13.68;;;12.30;;
10902;SDS011;5504;47.312;11.060;2023-09-12T01:35:45;13.30;;;12.10;;
10902;SDS011;5504;47.312;11.060;2023-09-12T01:38:12;14.25;;;12.85;;
10902;SDS011;5504;47.312;11.060;2023-09-12T01:40:40;14.02;;;12.75;;
10902;SDS011;5504;47.312;11.060;2023-09-12T01:43:10;13.27;;;11.95;;
10902;SDS011;5504;47.312;11.060;2023-09-12T01:45:38;13.80;;;12.40;;
10902;SDS011;5504;47.312;11.060;2023-09-12T01:48:04;13.48;;;12.25;;
10902;SDS011;5504;47.312;11.060;2023-09-12T01:50:31;13.40;;;12.10;;
10902;SDS011;5504;47.312;11.060;2023-09-12T01:52:59;14.15;;;12.85;;
10902;SDS011;5504;47.312;11.060;2023-09-12T01:55:25;14.05;;;12.65;;
10902;SDS011;5504;47.312;11.060;2023-09-12T01:57:52;12.63;;;11.48;;
10902;SDS011;5504;47.312;11.060;2023-09-12T02:00:18;14.17;;;11.90;;
10902;SDS011;5504;47.312;11.060;2023-09-12T02:02:45;12.80;;;11.60;;
10902;SDS011;5504;47.312;11.060;2023-09-12T02:07:45;13.88;;;12.48;;
10902;SDS011;5504;47.312;11.060;2023-09-12T02:10:11;14.45;;;13.15;;
10902;SDS011;5504;47.312;11.060;2023-09-12T02:12:38;13.65;;;12.25;;
10902;SDS011;5504;47.312;11.060;2023-09-12T02:15:04;13.23;;;12.02;;
10902;SDS011;5504;47.312;11.060;2023-09-12T02:17:30;13.77;;;12.40;;
10902;SDS011;5504;47.312;11.060;2023-09-12T02:19:56;13.85;;;12.55;;
10902;SDS011;5504;47.312;11.060;2023-09-12T02:22:22;14.45;;;13.02;;
10902;SDS011;5504;47.312;11.060;2023-09-12T02:24:48;14.15;;;12.85;;
10902;SDS011;5504;47.312;11.060;2023-09-12T02:27:14;13.50;;;12.13;;
10902;SDS011;5504;47.312;11.060;2023-09-12T02:29:40;13.75;;;12.48;;
10902;SDS011;5504;47.312;11.060;2023-09-12T02:32:07;13.37;;;11.97;;
10902;SDS011;5504;47.312;11.060;2023-09-12T02:34:33;14.80;;;13.37;;
10902;SDS011;5504;47.312;11.060;2023-09-12T02:36:59;13.70;;;12.40;;
10902;SDS011;5504;47.312;11.060;2023-09-12T02:39:25;14.03;;;12.63;;
10902;SDS011;5504;47.312;11.060;2023-09-12T02:41:50;13.53;;;12.23;;
10902;SDS011;5504;47.312;11.060;2023-09-12T02:44:16;14.20;;;12.83;;
10902;SDS011;5504;47.312;11.060;2023-09-12T02:46:42;14.10;;;12.70;;
10902;SDS011;5504;47.312;11.060;2023-09-12T02:49:08;13.70;;;12.40;;
10902;SDS011;5504;47.312;11.060;2023-09-12T02:51:33;13.67;;;12.37;;
10902;SDS011;5504;47.312;11.060;2023-09-12T02:54:02;14.17;;;12.70;;
10902;SDS011;5504;47.312;11.060;2023-09-12T02:56:28;14.20;;;12.80;;
10902;SDS011;5504;47.312;11.060;2023-09-12T02:58:55;14.63;;;13.23;;
10902;SDS011;5504;47.312;11.060;2023-09-12T03:01:21;14.03;;;12.60;;
10902;SDS011;5504;47.312;11.060;2023-09-12T03:03:47;13.50;;;12.20;;
10902;SDS011;5504;47.312;11.060;2023-09-12T03:06:14;14.50;;;13.00;;
10902;SDS011;5504;47.312;11.060;2023-09-12T03:08:40;14.25;;;12.75;;
10902;SDS011;5504;47.312;11.060;2023-09-12T03:11:06;13.87;;;12.57;;
10902;SDS011;5504;47.312;11.060;2023-09-12T03:13:33;14.10;;;12.70;;
10902;SDS011;5504;47.312;11.060;2023-09-12T03:15:59;14.63;;;13.17;;
10902;SDS011;5504;47.312;11.060;2023-09-12T03:18:25;14.50;;;13.10;;
10902;SDS011;5504;47.312;11.060;2023-09-12T03:20:51;14.70;;;13.30;;
10902;SDS011;5504;47.312;11.060;2023-09-12T03:23:17;13.75;;;12.43;;
10902;SDS011;5504;47.312;11.060;2023-09-12T03:25:44;14.13;;;12.77;;
10902;SDS011;5504;47.312;11.060;2023-09-12T03:28:09;14.37;;;12.93;;
10902;SDS011;5504;47.312;11.060;2023-09-12T03:30:35;14.50;;;13.00;;
10902;SDS011;5504;47.312;11.060;2023-09-12T03:33:02;13.33;;;12.13;;
10902;SDS011;5504;47.312;11.060;2023-09-12T03:35:28;14.33;;;13.03;;
10902;SDS011;5504;47.312;11.060;2023-09-12T03:37:54;14.37;;;12.97;;
10902;SDS011;5504;47.312;11.060;2023-09-12T03:40:20;14.60;;;13.20;;
10902;SDS011;5504;47.312;11.060;2023-09-12T03:42:46;14.27;;;12.87;;
10902;SDS011;5504;47.312;11.060;2023-09-12T03:45:11;14.40;;;12.97;;
10902;SDS011;5504;47.312;11.060;2023-09-12T03:47:37;14.27;;;12.90;;
10902;SDS011;5504;47.312;11.060;2023-09-12T03:50:03;14.23;;;12.83;;
10902;SDS011;5504;47.312;11.060;2023-09-12T03:52:29;15.30;;;13.77;;
10902;SDS011;5504;47.312;11.060;2023-09-12T03:54:55;14.53;;;13.13;;
10902;SDS011;5504;47.312;11.060;2023-09-12T03:57:21;14.50;;;13.00;;
10902;SDS011;5504;47.312;11.060;2023-09-12T03:59:47;14.40;;;13.00;;
10902;SDS011;5504;47.312;11.060;2023-09-12T04:02:13;14.97;;;13.57;;
10902;SDS011;5504;47.312;11.060;2023-09-12T04:04:38;13.87;;;12.47;;
10902;SDS011;5504;47.312;11.060;2023-09-12T04:07:04;14.70;;;13.30;;
10902;SDS011;5504;47.312;11.060;2023-09-12T04:09:30;14.10;;;12.80;;
10902;SDS011;5504;47.312;11.060;2023-09-12T04:11:56;14.40;;;13.10;;
10902;SDS011;5504;47.312;11.060;2023-09-12T04:14:22;14.40;;;13.00;;
10902;SDS011;5504;47.312;11.060;2023-09-12T04:16:48;14.57;;;13.10;;
10902;SDS011;5504;47.312;11.060;2023-09-12T04:19:14;13.73;;;12.43;;
10902;SDS011;5504;47.312;11.060;2023-09-12T04:21:39;14.10;;;12.70;;
10902;SDS011;5504;47.312;11.060;2023-09-12T04:24:06;14.33;;;13.00;;
10902;SDS011;5504;47.312;11.060;2023-09-12T04:26:32;14.77;;;13.27;;
10902;SDS011;5504;47.312;11.060;2023-09-12T04:28:58;15.13;;;13.63;;
10902;SDS011;5504;47.312;11.060;2023-09-12T04:31:23;14.67;;;12.97;;
10902;SDS011;5504;47.312;11.060;2023-09-12T04:33:52;15.00;;;13.60;;
10902;SDS011;5504;47.312;11.060;2023-09-12T04:36:18;14.00;;;12.67;;
10902;SDS011;5504;47.312;11.060;2023-09-12T04:38:45;14.80;;;13.20;;
10902;SDS011;5504;47.312;11.060;2023-09-12T04:41:11;14.80;;;13.30;;
10902;SDS011;5504;47.312;11.060;2023-09-12T04:43:40;14.17;;;12.87;;
10902;SDS011;5504;47.312;11.060;2023-09-12T04:46:06;14.97;;;13.47;;
10902;SDS011;5504;47.312;11.060;2023-09-12T04:48:32;14.13;;;12.73;;
10902;SDS011;5504;47.312;11.060;2023-09-12T04:50:58;14.40;;;13.00;;
10902;SDS011;5504;47.312;11.060;2023-09-12T04:53:23;14.63;;;13.13;;
10902;SDS011;5504;47.312;11.060;2023-09-12T04:55:51;14.90;;;13.30;;
10902;SDS011;5504;47.312;11.060;2023-09-12T04:58:18;14.97;;;13.07;;
10902;SDS011;5504;47.312;11.060;2023-09-12T05:00:45;14.13;;;12.73;;
10902;SDS011;5504;47.312;11.060;2023-09-12T05:03:11;14.10;;;12.70;;
10902;SDS011;5504;47.312;11.060;2023-09-12T05:05:36;14.53;;;13.13;;
10902;SDS011;5504;47.312;11.060;2023-09-12T05:08:02;14.10;;;12.60;;
10902;SDS011;5504;47.312;11.060;2023-09-12T05:10:29;15.23;;;13.03;;
10902;SDS011;5504;47.312;11.060;2023-09-12T05:12:55;14.30;;;12.90;;
10902;SDS011;5504;47.312;11.060;2023-09-12T05:15:20;14.57;;;13.13;;
10902;SDS011;5504;47.312;11.060;2023-09-12T05:17:46;14.47;;;13.07;;
10902;SDS011;5504;47.312;11.060;2023-09-12T05:20:12;14.50;;;13.00;;
10902;SDS011;5504;47.312;11.060;2023-09-12T05:22:37;14.57;;;13.17;;
10902;SDS011;5504;47.312;11.060;2023-09-12T05:25:03;13.97;;;12.47;;
10902;SDS011;5504;47.312;11.060;2023-09-12T05:27:29;14.23;;;12.90;;
10902;SDS011;5504;47.312;11.060;2023-09-12T05:29:55;14.27;;;12.77;;
10902;SDS011;5504;47.312;11.060;2023-09-12T05:32:20;15.07;;;13.57;;
10902;SDS011;5504;47.312;11.060;2023-09-12T05:34:46;14.40;;;13.07;;
10902;SDS011;5504;47.312;11.060;2023-09-12T05:37:14;14.83;;;13.33;;
10902;SDS011;5504;47.312;11.060;2023-09-12T05:39:40;14.10;;;12.70;;
10902;SDS011;5504;47.312;11.060;2023-09-12T05:42:06;14.53;;;13.07;;
10902;SDS011;5504;47.312;11.060;2023-09-12T05:44:32;14.97;;;13.50;;
10902;SDS011;5504;47.312;11.060;2023-09-12T05:46:58;15.03;;;13.53;;
10902;SDS011;5504;47.312;11.060;2023-09-12T05:49:24;14.63;;;13.20;;
10902;SDS011;5504;47.312;11.060;2023-09-12T05:51:49;14.63;;;13.17;;
10902;SDS011;5504;47.312;11.060;2023-09-12T05:54:15;14.33;;;12.83;;
10902;SDS011;5504;47.312;11.060;2023-09-12T05:56:42;14.63;;;13.23;;
10902;SDS011;5504;47.312;11.060;2023-09-12T05:59:07;15.10;;;13.60;;
10902;SDS011;5504;47.312;11.060;2023-09-12T06:01:33;14.73;;;13.13;;
10902;SDS011;5504;47.312;11.060;2023-09-12T06:03:59;15.07;;;13.57;;
10902;SDS011;5504;47.312;11.060;2023-09-12T06:06:24;14.43;;;12.90;;
10902;SDS011;5504;47.312;11.060;2023-09-12T06:08:50;14.60;;;13.20;;
10902;SDS011;5504;47.312;11.060;2023-09-12T06:11:18;14.60;;;13.20;;
10902;SDS011;5504;47.312;11.060;2023-09-12T06:13:44;13.73;;;12.40;;
10902;SDS011;5504;47.312;11.060;2023-09-12T06:16:09;14.43;;;12.93;;
10902;SDS011;5504;47.312;11.060;2023-09-12T06:18:35;14.35;;;12.65;;
10902;SDS011;5504;47.312;11.060;2023-09-12T06:21:01;13.05;;;11.85;;
10902;SDS011;5504;47.312;11.060;2023-09-12T06:23:33;14.15;;;12.73;;
10902;SDS011;5504;47.312;11.060;2023-09-12T06:25:59;14.15;;;12.70;;
10902;SDS011;5504;47.312;11.060;2023-09-12T06:28:28;13.55;;;12.25;;
10902;SDS011;5504;47.312;11.060;2023-09-12T06:30:58;13.70;;;12.32;;
10902;SDS011;5504;47.312;11.060;2023-09-12T06:33:26;13.60;;;12.25;;
10902;SDS011;5504;47.312;11.060;2023-09-12T06:35:53;13.43;;;12.15;;
10902;SDS011;5504;47.312;11.060;2023-09-12T06:38:20;14.13;;;12.77;;
10902;SDS011;5504;47.312;11.060;2023-09-12T06:40:47;13.27;;;12.00;;
10902;SDS011;5504;47.312;11.060;2023-09-12T06:43:13;13.32;;;12.13;;
10902;SDS011;5504;47.312;11.060;2023-09-12T06:45:43;13.18;;;11.88;;
10902;SDS011;5504;47.312;11.060;2023-09-12T06:48:08;13.32;;;11.70;;
10902;SDS011;5504;47.312;11.060;2023-09-12T06:50:34;13.38;;;12.10;;
10902;SDS011;5504;47.312;11.060;2023-09-12T06:53:03;12.30;;;11.10;;
10902;SDS011;5504;47.312;11.060;2023-09-12T06:55:30;12.25;;;11.05;;
10902;SDS011;5504;47.312;11.060;2023-09-12T06:57:56;13.07;;;11.77;;
10902;SDS011;5504;47.312;11.060;2023-09-12T07:00:22;12.77;;;11.57;;
10902;SDS011;5504;47.312;11.060;2023-09-12T07:02:47;12.48;;;11.27;;
10902;SDS011;5504;47.312;11.060;2023-09-12T07:05:13;12.13;;;10.93;;
10902;SDS011;5504;47.312;11.060;2023-09-12T07:07:39;12.07;;;10.90;;
10902;SDS011;5504;47.312;11.060;2023-09-12T07:10:05;12.98;;;11.45;;
10902;SDS011;5504;47.312;11.060;2023-09-12T07:12:31;13.55;;;11.90;;
10902;SDS011;5504;47.312;11.060;2023-09-12T07:14:58;12.48;;;11.27;;
10902;SDS011;5504;47.312;11.060;2023-09-12T07:17:23;11.98;;;10.77;;
10902;SDS011;5504;47.312;11.060;2023-09-12T07:19:49;12.13;;;11.02;;
10902;SDS011;5504;47.312;11.060;2023-09-12T07:22:16;12.10;;;10.90;;
10902;SDS011;5504;47.312;11.060;2023-09-12T07:24:41;12.55;;;11.35;;
10902;SDS011;5504;47.312;11.060;2023-09-12T07:27:07;12.13;;;10.65;;
10902;SDS011;5504;47.312;11.060;2023-09-12T07:29:33;12.60;;;11.40;;
10902;SDS011;5504;47.312;11.060;2023-09-12T07:31:58;12.48;;;11.05;;
10902;SDS011;5504;47.312;11.060;2023-09-12T07:34:24;12.30;;;10.90;;
10902;SDS011;5504;47.312;11.060;2023-09-12T07:36:50;12.82;;;11.52;;
10902;SDS011;5504;47.312;11.060;2023-09-12T07:39:16;12.20;;;10.90;;
10902;SDS011;5504;47.312;11.060;2023-09-12T07:41:42;11.60;;;10.50;;
10902;SDS011;5504;47.312;11.060;2023-09-12T07:44:08;12.02;;;10.82;;
10902;SDS011;5504;47.312;11.060;2023-09-12T07:46:37;11.75;;;10.65;;
10902;SDS011;5504;47.312;11.060;2023-09-12T07:49:03;11.80;;;10.70;;
10902;SDS011;5504;47.312;11.060;2023-09-12T07:51:28;12.13;;;11.00;;
10902;SDS011;5504;47.312;11.060;2023-09-12T07:53:54;11.45;;;10.40;;
10902;SDS011;5504;47.312;11.060;2023-09-12T07:56:20;13.38;;;11.05;;
10902;SDS011;5504;47.312;11.060;2023-09-12T07:58:45;12.23;;;11.13;;
10902;SDS011;5504;47.312;11.060;2023-09-12T08:01:11;11.23;;;10.20;;
10902;SDS011;5504;47.312;11.060;2023-09-12T08:03:37;11.35;;;10.35;;
10902;SDS011;5504;47.312;11.060;2023-09-12T08:06:04;11.80;;;10.40;;
10902;SDS011;5504;47.312;11.060;2023-09-12T08:08:31;11.75;;;10.63;;
10902;SDS011;5504;47.312;11.060;2023-09-12T08:10:56;11.57;;;10.48;;
10902;SDS011;5504;47.312;11.060;2023-09-12T08:13:25;11.40;;;10.40;;
10902;SDS011;5504;47.312;11.060;2023-09-12T08:15:52;11.63;;;10.38;;
10902;SDS011;5504;47.312;11.060;2023-09-12T08:18:18;11.02;;;9.93;;
10902;SDS011;5504;47.312;11.060;2023-09-12T08:20:44;11.07;;;9.98;;
10902;SDS011;5504;47.312;11.060;2023-09-12T08:23:10;12.70;;;10.23;;
10902;SDS011;5504;47.312;11.060;2023-09-12T08:25:36;10.73;;;9.75;;
10902;SDS011;5504;47.312;11.060;2023-09-12T08:28:01;11.70;;;10.35;;
10902;SDS011;5504;47.312;11.060;2023-09-12T08:30:27;11.13;;;10.00;;
10902;SDS011;5504;47.312;11.060;2023-09-12T08:32:54;10.80;;;9.90;;
10902;SDS011;5504;47.312;11.060;2023-09-12T08:35:21;11.57;;;10.40;;
10902;SDS011;5504;47.312;11.060;2023-09-12T08:37:46;11.52;;;10.32;;
10902;SDS011;5504;47.312;11.060;2023-09-12T08:40:13;12.20;;;10.77;;
10902;SDS011;5504;47.312;11.060;2023-09-12T08:42:42;11.57;;;10.38;;
10902;SDS011;5504;47.312;11.060;2023-09-12T08:47:43;11.80;;;10.65;;
10902;SDS011;5504;47.312;11.060;2023-09-12T08:50:10;11.07;;;10.07;;
10902;SDS011;5504;47.312;11.060;2023-09-12T08:52:41;12.18;;;10.43;;
10902;SDS011;5504;47.312;11.060;2023-09-12T08:55:07;10.77;;;9.57;;
10902;SDS011;5504;47.312;11.060;2023-09-12T08:57:34;11.57;;;10.43;;
10902;SDS011;5504;47.312;11.060;2023-09-12T09:00:01;11.52;;;10.32;;
10902;SDS011;5504;47.312;11.060;2023-09-12T09:02:34;14.70;;;10.95;;
10902;SDS011;5504;47.312;11.060;2023-09-12T09:05:04;11.23;;;9.85;;
10902;SDS011;5504;47.312;11.060;2023-09-12T09:07:32;11.23;;;10.23;;
10902;SDS011;5504;47.312;11.060;2023-09-12T09:10:01;11.75;;;10.57;;
10902;SDS011;5504;47.312;11.060;2023-09-12T09:12:34;10.90;;;9.90;;
10902;SDS011;5504;47.312;11.060;2023-09-12T09:15:20;12.82;;;10.88;;
10902;SDS011;5504;47.312;11.060;2023-09-12T09:17:49;10.40;;;9.40;;
10902;SDS011;5504;47.312;11.060;2023-09-12T09:20:32;10.88;;;9.77;;
10902;SDS011;5504;47.312;11.060;2023-09-12T09:23:06;11.35;;;10.10;;
10902;SDS011;5504;47.312;11.060;2023-09-12T09:25:38;11.20;;;10.20;;
10902;SDS011;5504;47.312;11.060;2023-09-12T09:28:07;11.50;;;10.40;;
10902;SDS011;5504;47.312;11.060;2023-09-12T09:30:46;10.90;;;9.57;;
10902;SDS011;5504;47.312;11.060;2023-09-12T09:33:20;10.15;;;9.18;;
10902;SDS011;5504;47.312;11.060;2023-09-12T09:35:46;11.30;;;10.30;;
10902;SDS011;5504;47.312;11.060;2023-09-12T09:38:13;11.27;;;10.10;;
10902;SDS011;5504;47.312;11.060;2023-09-12T09:40:41;10.43;;;9.43;;
10902;SDS011;5504;47.312;11.060;2023-09-12T09:43:08;10.30;;;9.40;;
10902;SDS011;5504;47.312;11.060;2023-09-12T09:45:41;10.77;;;9.60;;
10902;SDS011;5504;47.312;11.060;2023-09-12T09:48:09;10.25;;;9.25;;
10902;SDS011;5504;47.312;11.060;2023-09-12T09:50:42;10.77;;;9.77;;
10902;SDS011;5504;47.312;11.060;2023-09-12T09:53:08;10.13;;;9.07;;
10902;SDS011;5504;47.312;11.060;2023-09-12T09:55:35;10.35;;;9.35;;
10902;SDS011;5504;47.312;11.060;2023-09-12T09:58:01;10.52;;;9.40;;
10902;SDS011;5504;47.312;11.060;2023-09-12T10:00:28;10.70;;;9.57;;
10902;SDS011;5504;47.312;11.060;2023-09-12T10:02:58;11.95;;;9.90;;
10902;SDS011;5504;47.312;11.060;2023-09-12T10:05:27;10.65;;;9.65;;
10902;SDS011;5504;47.312;11.060;2023-09-12T10:07:56;10.75;;;9.63;;
10902;SDS011;5504;47.312;11.060;2023-09-12T10:10:24;10.57;;;9.57;;
10902;SDS011;5504;47.312;11.060;2023-09-12T10:12:55;9.80;;;8.90;;
10902;SDS011;5504;47.312;11.060;2023-09-12T10:15:22;10.07;;;9.18;;
10902;SDS011;5504;47.312;11.060;2023-09-12T10:17:57;10.90;;;9.80;;
10902;SDS011;5504;47.312;11.060;2023-09-12T10:20:27;10.52;;;9.52;;
10902;SDS011;5504;47.312;11.060;2023-09-12T10:23:07;11.13;;;9.80;;
10902;SDS011;5504;47.312;11.060;2023-09-12T10:25:38;10.73;;;9.73;;
10902;SDS011;5504;47.312;11.060;2023-09-12T10:28:08;10.45;;;9.45;;
10902;SDS011;5504;47.312;11.060;2023-09-12T10:30:34;10.00;;;9.10;;
10902;SDS011;5504;47.312;11.060;2023-09-12T10:33:04;10.10;;;9.07;;
10902;SDS011;5504;47.312;11.060;2023-09-12T10:35:30;10.05;;;9.15;;
10902;SDS011;5504;47.312;11.060;2023-09-12T10:37:59;10.10;;;9.10;;
10902;SDS011;5504;47.312;11.060;2023-09-12T10:40:31;10.48;;;9.48;;
10902;SDS011;5504;47.312;11.060;2023-09-12T10:43:01;10.80;;;9.80;;
10902;SDS011;5504;47.312;11.060;2023-09-12T10:45:31;10.43;;;9.50;;
10902;SDS011;5504;47.312;11.060;2023-09-12T10:47:58;11.18;;;10.07;;
10902;SDS011;5504;47.312;11.060;2023-09-12T10:50:24;10.70;;;9.70;;
10902;SDS011;5504;47.312;11.060;2023-09-12T10:52:50;10.48;;;9.43;;
10902;SDS011;5504;47.312;11.060;2023-09-12T10:55:16;10.63;;;9.63;;
10902;SDS011;5504;47.312;11.060;2023-09-12T10:58:04;10.90;;;9.90;;
10902;SDS011;5504;47.312;11.060;2023-09-12T11:00:35;11.10;;;9.98;;
10902;SDS011;5504;47.312;11.060;2023-09-12T11:05:53;11.55;;;10.43;;
10902;SDS011;5504;47.312;11.060;2023-09-12T11:08:20;10.50;;;9.60;;
10902;SDS011;5504;47.312;11.060;2023-09-12T11:13:44;11.00;;;9.85;;
10902;SDS011;5504;47.312;11.060;2023-09-12T11:16:11;10.50;;;9.45;;
10902;SDS011;5504;47.312;11.060;2023-09-12T11:21:40;10.95;;;9.85;;
10902;SDS011;5504;47.312;11.060;2023-09-12T11:24:10;9.93;;;9.05;;
10902;SDS011;5504;47.312;11.060;2023-09-12T11:26:51;10.80;;;9.45;;
10902;SDS011;5504;47.312;11.060;2023-09-12T11:29:46;10.55;;;9.65;;
10902;SDS011;5504;47.312;11.060;2023-09-12T11:32:24;10.27;;;9.23;;
10902;SDS011;5504;47.312;11.060;2023-09-12T11:34:51;10.65;;;9.65;;
10902;SDS011;5504;47.312;11.060;2023-09-12T11:37:24;10.15;;;9.25;;
10902;SDS011;5504;47.312;11.060;2023-09-12T11:39:51;10.30;;;9.30;;
10902;SDS011;5504;47.312;11.060;2023-09-12T11:42:18;11.00;;;9.90;;
10902;SDS011;5504;47.312;11.060;2023-09-12T11:44:44;10.65;;;9.65;;
10902;SDS011;5504;47.312;11.060;2023-09-12T11:47:09;10.77;;;9.77;;
10902;SDS011;5504;47.312;11.060;2023-09-12T11:49:37;10.40;;;9.50;;
10902;SDS011;5504;47.312;11.060;2023-09-12T11:52:07;10.55;;;9.55;;
10902;SDS011;5504;47.312;11.060;2023-09-12T11:54:35;9.90;;;9.00;;
10902;SDS011;5504;47.312;11.060;2023-09-12T11:57:01;9.55;;;8.73;;
10902;SDS011;5504;47.312;11.060;2023-09-12T11:59:30;10.32;;;8.95;;
10902;SDS011;5504;47.312;11.060;2023-09-12T12:01:56;9.55;;;8.65;;
10902;SDS011;5504;47.312;11.060;2023-09-12T12:04:23;9.68;;;8.65;;
10902;SDS011;5504;47.312;11.060;2023-09-12T12:06:52;9.68;;;8.68;;
10902;SDS011;5504;47.312;11.060;2023-09-12T12:09:19;10.10;;;9.10;;
10902;SDS011;5504;47.312;11.060;2023-09-12T12:11:45;9.50;;;8.60;;
10902;SDS011;5504;47.312;11.060;2023-09-12T12:14:15;9.63;;;8.73;;
10902;SDS011;5504;47.312;11.060;2023-09-12T12:16:45;10.65;;;9.45;;
10902;SDS011;5504;47.312;11.060;2023-09-12T12:19:12;9.10;;;8.40;;
10902;SDS011;5504;47.312;11.060;2023-09-12T12:21:39;11.68;;;9.00;;
10902;SDS011;5504;47.312;11.060;2023-09-12T12:24:13;11.38;;;9.40;;
10902;SDS011;5504;47.312;11.060;2023-09-12T12:26:42;10.25;;;8.85;;
10902;SDS011;5504;47.312;11.060;2023-09-12T12:29:09;9.73;;;8.82;;
10902;SDS011;5504;47.312;11.060;2023-09-12T12:31:36;9.50;;;8.63;;
10902;SDS011;5504;47.312;11.060;2023-09-12T12:34:05;9.60;;;8.70;;
10902;SDS011;5504;47.312;11.060;2023-09-12T12:36:31;9.95;;;8.95;;
10902;SDS011;5504;47.312;11.060;2023-09-12T12:38:57;9.68;;;8.85;;
10902;SDS011;5504;47.312;11.060;2023-09-12T12:41:24;9.93;;;8.93;;
10902;SDS011;5504;47.312;11.060;2023-09-12T12:43:52;9.57;;;8.68;;
10902;SDS011;5504;47.312;11.060;2023-09-12T12:46:19;9.38;;;8.38;;
10902;SDS011;5504;47.312;11.060;2023-09-12T12:48:46;9.63;;;8.77;;
10902;SDS011;5504;47.312;11.060;2023-09-12T12:51:30;9.45;;;7.60;;
10902;SDS011;5504;47.312;11.060;2023-09-12T12:54:07;10.15;;;7.97;;
10902;SDS011;5504;47.312;11.060;2023-09-12T12:56:33;8.98;;;8.18;;
10902;SDS011;5504;47.312;11.060;2023-09-12T12:58:59;8.93;;;8.20;;
10902;SDS011;5504;47.312;11.060;2023-09-12T13:01:28;9.48;;;8.25;;
10902;SDS011;5504;47.312;11.060;2023-09-12T13:03:54;8.82;;;7.93;;
10902;SDS011;5504;47.312;11.060;2023-09-12T13:06:21;10.23;;;8.10;;
10902;SDS011;5504;47.312;11.060;2023-09-12T13:08:48;9.13;;;7.53;;
10902;SDS011;5504;47.312;11.060;2023-09-12T13:11:14;8.45;;;7.65;;
10902;SDS011;5504;47.312;11.060;2023-09-12T13:13:41;9.13;;;8.32;;
10902;SDS011;5504;47.312;11.060;2023-09-12T13:16:08;8.85;;;8.05;;
10902;SDS011;5504;47.312;11.060;2023-09-12T13:18:36;8.73;;;7.93;;
10902;SDS011;5504;47.312;11.060;2023-09-12T13:21:02;8.48;;;7.68;;
10902;SDS011;5504;47.312;11.060;2023-09-12T13:23:29;9.15;;;8.00;;
10902;SDS011;5504;47.312;11.060;2023-09-12T13:25:55;9.65;;;8.75;;
10902;SDS011;5504;47.312;11.060;2023-09-12T13:28:22;8.95;;;8.15;;
10902;SDS011;5504;47.312;11.060;2023-09-12T13:30:51;9.07;;;8.27;;
10902;SDS011;5504;47.312;11.060;2023-09-12T13:33:17;9.32;;;8.52;;
10902;SDS011;5504;47.312;11.060;2023-09-12T13:35:43;9.20;;;8.35;;
10902;SDS011;5504;47.312;11.060;2023-09-12T13:38:08;9.65;;;8.75;;
10902;SDS011;5504;47.312;11.060;2023-09-12T13:40:38;10.27;;;9.27;;
10902;SDS011;5504;47.312;11.060;2023-09-12T13:43:05;10.68;;;9.55;;
10902;SDS011;5504;47.312;11.060;2023-09-12T13:45:31;10.30;;;9.45;;
10902;SDS011;5504;47.312;11.060;2023-09-12T13:47:57;10.40;;;9.48;;
10902;SDS011;5504;47.312;11.060;2023-09-12T13:50:24;10.98;;;9.90;;
10902;SDS011;5504;47.312;11.060;2023-09-12T13:52:51;10.55;;;9.63;;
10902;SDS011;5504;47.312;11.060;2023-09-12T13:55:18;10.07;;;9.23;;
10902;SDS011;5504;47.312;11.060;2023-09-12T13:57:43;11.10;;;10.00;;
10902;SDS011;5504;47.312;11.060;2023-09-12T14:00:09;10.88;;;9.77;;
10902;SDS011;5504;47.312;11.060;2023-09-12T14:02:35;10.70;;;9.18;;
10902;SDS011;5504;47.312;11.060;2023-09-12T14:05:01;9.88;;;8.52;;
10902;SDS011;5504;47.312;11.060;2023-09-12T14:07:27;9.52;;;8.63;;
10902;SDS011;5504;47.312;11.060;2023-09-12T14:09:52;10.15;;;8.75;;
10902;SDS011;5504;47.312;11.060;2023-09-12T14:12:21;10.48;;;9.35;;
10902;SDS011;5504;47.312;11.060;2023-09-12T14:14:47;9.73;;;8.45;;
10902;SDS011;5504;47.312;11.060;2023-09-12T14:17:13;9.13;;;8.32;;
10902;SDS011;5504;47.312;11.060;2023-09-12T14:19:39;10.05;;;9.05;;
10902;SDS011;5504;47.312;11.060;2023-09-12T14:22:05;9.60;;;8.52;;
10902;SDS011;5504;47.312;11.060;2023-09-12T14:24:31;9.75;;;8.75;;
10902;SDS011;5504;47.312;11.060;2023-09-12T14:26:56;9.27;;;8.25;;
10902;SDS011;5504;47.312;11.060;2023-09-12T14:29:22;9.10;;;8.30;;
10902;SDS011;5504;47.312;11.060;2023-09-12T14:31:49;10.68;;;9.10;;
10902;SDS011;5504;47.312;11.060;2023-09-12T14:34:17;10.32;;;9.32;;
10902;SDS011;5504;47.312;11.060;2023-09-12T14:36:43;10.65;;;9.60;;
10902;SDS011;5504;47.312;11.060;2023-09-12T14:39:11;10.32;;;9.27;;
10902;SDS011;5504;47.312;11.060;2023-09-12T14:41:37;10.45;;;9.43;;
10902;SDS011;5504;47.312;11.060;2023-09-12T14:44:03;11.90;;;9.50;;
10902;SDS011;5504;47.312;11.060;2023-09-12T14:46:30;11.02;;;10.02;;
10902;SDS011;5504;47.312;11.060;2023-09-12T14:48:55;11.07;;;9.93;;